EFOU

Oulu Airport

Oulu / Oulunsalo, Finland
METAR EFOU 181320Z AUTO VRB02KT 9999 -SN NCD M19/M21 Q0996
Observed Flight Rules
Jan-18 @ 13:20 UTC (28 minutes ago) Visual Flight Rules
Wind Visibility Clouds Conditions
Variable at 2 knots 10,000+ meters
  • Clear skies
  • Light Snow
Temperatures Readings
Current -19°C / -2°F
Dewpoint -21°C / -6°F
Humidity 84%
Altimeter 29.41" Hg
Pressure 995.92 hPa
Elevation 15
METAR EFOU 181320Z AUTO VRB02KT 9999 -SN NCD M19/M21 Q0996
Observed Flight Rules
Jan-18 @ 13:20 UTC
(28 minutes ago)
VFR
Wind Visibility
Variable at 2 knots 10,000+ meters
Clouds
  • Clear skies
Conditions
  • Light Snow
Temperature Dewpoint
-19°C / -2°F -21°C / -6°F
Humidity Altimeter Pressure
84% 29.41" Hg 995.92 hPa